Time;durP1;ratioP1;P1;durP2;ratioP2;P2;SDS_P1;SDS_P2;PMS_P1;PMS_P2;Temp;Humidity;BMP_temperature;BMP_pressure;BME280_temperature;BME280_humidity;BME280_pressure;Samples;Min_cycle;Max_cycle;Signal;HPM_P1;HPM_P2
2020/12/15 00:02:09;;;;;;;6.23;3.80;;;11.40;99.90;;;;;;4979460;28;20229;-85
2020/12/15 00:04:34;;;;;;;5.73;4.03;;;11.40;99.90;;;;;;4981442;28;20649;-84
2020/12/15 00:07:02;;;;;;;7.40;3.87;;;11.50;99.90;;;;;;4983535;28;20224;-84
2020/12/15 00:09:27;;;;;;;5.67;3.70;;;11.40;99.90;;;;;;4980236;28;20192;-85
2020/12/15 00:11:53;;;;;;;7.70;3.60;;;11.50;99.90;;;;;;4978486;28;20183;-85
2020/12/15 00:14:18;;;;;;;5.57;3.83;;;11.50;99.90;;;;;;4976780;28;20182;-85
2020/12/15 00:16:44;;;;;;;6.37;3.90;;;11.40;99.90;;;;;;4977179;28;20229;-85
2020/12/15 00:19:11;;;;;;;5.07;3.87;;;11.40;99.90;;;;;;4976994;28;20178;-85
2020/12/15 00:21:41;;;;;;;8.07;3.90;;;11.40;99.90;;;;;;4976921;28;20184;-85
2020/12/15 00:24:07;;;;;;;7.80;4.00;;;11.40;99.90;;;;;;4977201;28;20174;-85
2020/12/15 00:26:32;;;;;;;5.57;4.00;;;11.40;99.90;;;;;;4976661;28;20194;-85
2020/12/15 00:28:58;;;;;;;4.83;3.80;;;11.30;99.90;;;;;;4976627;28;20182;-85
2020/12/15 00:31:23;;;;;;;5.90;4.00;;;11.20;99.90;;;;;;4976962;28;20239;-85
2020/12/15 00:33:49;;;;;;;6.87;4.33;;;11.20;99.90;;;;;;4977099;28;20268;-85
2020/12/15 00:36:21;;;;;;;6.57;3.87;;;11.30;99.90;;;;;;4976850;28;20216;-85
2020/12/15 00:38:48;;;;;;;7.00;4.20;;;11.30;99.90;;;;;;4976727;28;20232;-85
2020/12/15 00:41:13;;;;;;;6.93;3.80;;;11.20;99.90;;;;;;4976903;28;20177;-85
2020/12/15 00:43:39;;;;;;;6.13;3.90;;;11.20;99.90;;;;;;4977432;28;20194;-85
2020/12/15 00:46:05;;;;;;;7.23;4.03;;;11.20;99.90;;;;;;4980446;28;20197;-84
2020/12/15 00:48:30;;;;;;;5.43;3.70;;;11.30;99.90;;;;;;4980289;28;20171;-85
2020/12/15 00:50:56;;;;;;;6.70;4.63;;;11.30;99.90;;;;;;4980403;28;20179;-85
2020/12/15 00:53:21;;;;;;;6.83;3.70;;;11.20;99.90;;;;;;4980250;28;20248;-84
2020/12/15 00:55:47;;;;;;;6.83;4.10;;;11.30;99.90;;;;;;4980222;28;20266;-85
2020/12/15 00:58:13;;;;;;;7.67;5.10;;;11.40;99.90;;;;;;4980025;28;20182;-84
2020/12/15 01:00:39;;;;;;;6.50;3.67;;;11.40;99.90;;;;;;4980086;28;20197;-85
2020/12/15 01:03:04;;;;;;;6.30;3.90;;;11.30;99.90;;;;;;4980036;28;20523;-86
2020/12/15 01:05:30;;;;;;;6.70;4.23;;;11.40;99.90;;;;;;4980007;28;20185;-86
2020/12/15 01:07:56;;;;;;;5.93;4.53;;;11.40;99.90;;;;;;4980304;28;20178;-85
2020/12/15 01:10:21;;;;;;;9.10;4.30;;;11.40;99.90;;;;;;4980093;28;20232;-85
2020/12/15 01:12:47;;;;;;;5.70;4.03;;;11.40;99.90;;;;;;4979850;28;20185;-86
2020/12/15 01:15:13;;;;;;;4.33;3.60;;;11.30;99.90;;;;;;4979991;28;20274;-85
2020/12/15 01:17:38;;;;;;;6.67;3.93;;;11.40;99.90;;;;;;4979726;28;20327;-85
2020/12/15 01:20:04;;;;;;;4.97;3.70;;;11.50;99.90;;;;;;4980026;28;20201;-85
2020/12/15 01:22:30;;;;;;;8.33;4.40;;;11.50;99.90;;;;;;4979623;28;20543;-85
2020/12/15 01:24:55;;;;;;;8.10;4.17;;;11.30;99.90;;;;;;4979836;28;20221;-85
2020/12/15 01:27:21;;;;;;;5.63;4.10;;;11.30;99.90;;;;;;4979573;28;20182;-85
2020/12/15 01:29:46;;;;;;;5.53;3.97;;;11.40;99.90;;;;;;4979785;28;20183;-86
2020/12/15 01:32:12;;;;;;;8.30;4.20;;;11.40;99.90;;;;;;4980230;28;20582;-85
2020/12/15 01:34:37;;;;;;;6.00;3.93;;;11.50;99.90;;;;;;4979759;28;20192;-85
2020/12/15 01:37:04;;;;;;;8.63;4.37;;;11.50;99.90;;;;;;4979431;28;20229;-85
2020/12/15 01:39:30;;;;;;;6.73;3.60;;;11.50;99.90;;;;;;4979664;28;20182;-85
2020/12/15 01:41:55;;;;;;;6.03;4.17;;;11.50;99.90;;;;;;4979203;28;20631;-85
2020/12/15 01:44:21;;;;;;;8.47;3.67;;;11.50;99.90;;;;;;4996640;28;20269;-85
2020/12/15 01:46:47;;;;;;;6.73;4.23;;;11.50;99.90;;;;;;4996791;28;20280;-85
2020/12/15 01:49:13;;;;;;;8.47;4.13;;;11.40;99.90;;;;;;4979358;28;20178;-85
2020/12/15 01:51:39;;;;;;;8.00;4.23;;;11.50;99.90;;;;;;4979266;28;20178;-85
2020/12/15 01:54:05;;;;;;;5.87;3.73;;;11.50;99.90;;;;;;4979297;28;20206;-85
2020/12/15 01:56:31;;;;;;;6.77;4.60;;;11.50;99.90;;;;;;4977653;28;20698;-85
2020/12/15 01:58:58;;;;;;;5.67;4.07;;;11.60;99.90;;;;;;4979275;28;20260;-85
2020/12/15 02:01:25;;;;;;;7.13;4.30;;;11.50;99.90;;;;;;4996440;28;20214;-85
2020/12/15 02:03:51;;;;;;;6.20;4.37;;;11.50;99.90;;;;;;4979317;28;20170;-85
2020/12/15 02:06:18;;;;;;;6.30;4.40;;;11.40;99.90;;;;;;4979102;28;20273;-85
2020/12/15 02:08:44;;;;;;;5.93;4.00;;;11.30;99.90;;;;;;4979021;28;20186;-85
2020/12/15 02:11:10;;;;;;;5.80;3.63;;;11.40;99.90;;;;;;4978788;28;20233;-85
2020/12/15 02:13:37;;;;;;;7.40;4.00;;;11.40;99.90;;;;;;4978772;28;20186;-85
2020/12/15 02:16:10;;;;;;;5.50;4.20;;;11.40;99.90;;;;;;4978988;28;20268;-86
2020/12/15 02:18:37;;;;;;;4.93;4.00;;;11.50;99.90;;;;;;4978635;28;20205;-85
2020/12/15 02:21:05;;;;;;;8.90;4.20;;;11.60;99.90;;;;;;4963166;28;20226;-85
2020/12/15 02:23:31;;;;;;;6.33;4.57;;;11.50;99.90;;;;;;4978708;28;20182;-85
2020/12/15 02:25:57;;;;;;;6.47;4.27;;;11.50;99.90;;;;;;4978455;28;20635;-85
2020/12/15 02:28:23;;;;;;;6.97;4.33;;;11.50;99.90;;;;;;4978488;28;20205;-85
2020/12/15 02:30:48;;;;;;;7.80;4.20;;;11.50;99.90;;;;;;4978609;28;20214;-84
2020/12/15 02:33:14;;;;;;;8.00;4.10;;;11.50;99.90;;;;;;4978460;28;20182;-85
2020/12/15 02:35:40;;;;;;;6.07;4.30;;;11.50;99.90;;;;;;4978476;28;20222;-85
2020/12/15 02:38:05;;;;;;;5.97;3.67;;;11.70;99.90;;;;;;4978540;28;20191;-85
2020/12/15 02:40:31;;;;;;;7.67;4.63;;;11.70;99.90;;;;;;4978005;28;20220;-85
2020/12/15 02:42:56;;;;;;;6.47;4.30;;;11.70;99.90;;;;;;4978398;28;20207;-85
2020/12/15 02:45:22;;;;;;;4.87;4.30;;;11.70;99.90;;;;;;4978261;28;20244;-85
2020/12/15 02:47:47;;;;;;;8.00;4.00;;;11.70;99.90;;;;;;4995942;28;20221;-85
2020/12/15 02:50:21;;;;;;;6.90;4.10;;;11.80;99.90;;;;;;4980333;28;20203;-84
2020/12/15 02:52:46;;;;;;;4.97;3.87;;;11.70;99.90;;;;;;4983136;28;20264;-85
2020/12/15 02:55:12;;;;;;;5.97;4.47;;;11.70;99.90;;;;;;4981866;28;20194;-85
2020/12/15 02:57:37;;;;;;;7.87;4.30;;;11.60;99.90;;;;;;4980000;28;20200;-85
2020/12/15 03:00:07;;;;;;;6.87;4.73;;;11.70;99.90;;;;;;4978353;28;20187;-85
2020/12/15 03:02:32;;;;;;;4.40;3.80;;;11.80;99.90;;;;;;4995105;28;20190;-85
2020/12/15 03:04:58;;;;;;;6.43;4.03;;;11.70;99.90;;;;;;4977891;28;20178;-85
2020/12/15 03:07:23;;;;;;;6.87;4.47;;;11.80;99.90;;;;;;4977621;28;20263;-85
2020/12/15 03:09:49;;;;;;;6.77;4.47;;;11.60;99.90;;;;;;4977634;28;20190;-85
2020/12/15 03:12:14;;;;;;;6.87;4.53;;;11.50;99.90;;;;;;4977932;28;20174;-85
2020/12/15 03:14:40;;;;;;;5.87;4.63;;;11.50;99.90;;;;;;4977486;28;20189;-86
2020/12/15 03:17:06;;;;;;;7.20;4.47;;;11.50;99.90;;;;;;4977795;28;20217;-85
2020/12/15 03:19:31;;;;;;;6.97;4.40;;;11.50;99.90;;;;;;4977802;28;20190;-85
2020/12/15 03:21:58;;;;;;;6.33;4.40;;;11.50;99.90;;;;;;4977762;28;20214;-85
2020/12/15 03:24:23;;;;;;;5.90;4.23;;;11.60;99.90;;;;;;4977245;28;20280;-85
2020/12/15 03:26:49;;;;;;;6.90;4.30;;;11.50;99.90;;;;;;4977732;28;20218;-85
2020/12/15 03:29:14;;;;;;;6.97;4.73;;;11.50;99.90;;;;;;4977432;28;20598;-85
2020/12/15 03:31:40;;;;;;;5.67;4.47;;;11.60;99.90;;;;;;4977646;28;20190;-85
2020/12/15 03:34:05;;;;;;;6.80;4.60;;;11.60;99.90;;;;;;4994965;28;20632;-85
2020/12/15 03:36:31;;;;;;;7.83;4.77;;;11.50;99.90;;;;;;4977366;28;20245;-85
2020/12/15 03:38:58;;;;;;;6.60;5.17;;;11.40;99.90;;;;;;4977215;28;20179;-85
2020/12/15 03:41:23;;;;;;;9.27;4.90;;;11.40;99.90;;;;;;4977540;28;20192;-85
2020/12/15 03:43:49;;;;;;;6.40;4.37;;;11.40;99.90;;;;;;4977159;28;20220;-85
2020/12/15 03:46:14;;;;;;;7.07;4.80;;;11.50;99.90;;;;;;4977256;28;20245;-85
2020/12/15 03:48:42;;;;;;;7.13;4.80;;;11.60;99.90;;;;;;4977350;28;20187;-85
2020/12/15 03:51:07;;;;;;;7.03;4.47;;;11.60;99.90;;;;;;4977557;28;20189;-85
2020/12/15 03:53:33;;;;;;;6.37;4.47;;;11.60;99.90;;;;;;4977194;28;20192;-85
2020/12/15 03:55:58;;;;;;;6.03;4.50;;;11.60;99.90;;;;;;4977072;28;20312;-85
2020/12/15 03:58:24;;;;;;;9.03;5.10;;;11.70;99.90;;;;;;4977155;28;20188;-85
2020/12/15 04:00:49;;;;;;;7.20;4.60;;;11.60;99.90;;;;;;4994268;28;20189;-86
2020/12/15 04:03:15;;;;;;;8.20;4.40;;;11.70;99.90;;;;;;4977299;28;20590;-85
2020/12/15 04:05:40;;;;;;;5.93;4.53;;;11.70;99.90;;;;;;4977172;28;20184;-84
2020/12/15 04:08:07;;;;;;;8.00;4.67;;;11.60;99.90;;;;;;4994315;28;20182;-85
2020/12/15 04:10:33;;;;;;;5.87;4.43;;;11.60;99.90;;;;;;4977182;28;20652;-85
2020/12/15 04:12:58;;;;;;;5.73;4.07;;;11.60;99.90;;;;;;4977182;28;20267;-85
2020/12/15 04:15:24;;;;;;;8.73;4.50;;;11.60;99.90;;;;;;4976830;28;20630;-85
2020/12/15 04:17:49;;;;;;;6.10;4.63;;;11.50;99.90;;;;;;4977095;28;20619;-85
2020/12/15 04:20:15;;;;;;;5.20;3.83;;;11.50;99.90;;;;;;4980567;28;20191;-85
2020/12/15 04:22:41;;;;;;;6.33;4.30;;;11.60;99.90;;;;;;4980600;28;20183;-85
2020/12/15 04:25:07;;;;;;;5.93;4.33;;;11.70;99.90;;;;;;4998286;28;20208;-85
2020/12/15 04:27:33;;;;;;;7.93;4.40;;;11.60;99.90;;;;;;4980923;28;20254;-85
2020/12/15 04:29:58;;;;;;;5.87;4.03;;;11.70;99.90;;;;;;4980806;28;20625;-85
2020/12/15 04:32:25;;;;;;;6.73;4.07;;;11.70;99.90;;;;;;4980776;28;20222;-85
2020/12/15 04:34:51;;;;;;;9.27;4.37;;;11.70;99.90;;;;;;4980776;28;20177;-85
2020/12/15 04:37:17;;;;;;;8.93;4.67;;;11.70;99.90;;;;;;4980602;28;20337;-85
2020/12/15 04:39:43;;;;;;;6.07;3.83;;;11.70;99.90;;;;;;4980514;28;20170;-84
2020/12/15 04:42:09;;;;;;;7.63;4.23;;;11.70;99.90;;;;;;4980666;28;20184;-85
2020/12/15 04:44:35;;;;;;;7.23;4.20;;;11.80;99.90;;;;;;4980587;28;20634;-85
2020/12/15 04:47:22;;;;;;;7.03;4.00;;;11.70;99.90;;;;;;4980476;28;20546;-85
2020/12/15 04:50:07;;;;;;;7.13;3.87;;;11.80;99.90;;;;;;4997544;28;20180;-85
2020/12/15 04:52:54;;;;;;;5.23;3.67;;;11.90;99.90;;;;;;4980513;28;20178;-85
2020/12/15 04:55:25;;;;;;;6.80;3.93;;;11.90;99.90;;;;;;4980150;28;20178;-85
2020/12/15 04:57:58;;;;;;;7.20;4.50;;;11.70;99.90;;;;;;4980514;28;20190;-85
2020/12/15 05:00:24;;;;;;;8.47;4.57;;;11.50;99.90;;;;;;4980102;28;20189;-85
2020/12/15 05:02:52;;;;;;;5.83;4.03;;;11.40;99.90;;;;;;4980336;28;20236;-85
2020/12/15 05:05:21;;;;;;;4.93;4.00;;;11.60;99.90;;;;;;4980208;28;20745;-85
2020/12/15 05:07:47;;;;;;;6.27;4.40;;;11.40;99.90;;;;;;4997324;28;20704;-85
2020/12/15 05:10:15;;;;;;;6.53;4.23;;;11.50;99.90;;;;;;4979839;28;20273;-84
2020/12/15 05:12:41;;;;;;;6.53;4.27;;;11.50;99.90;;;;;;4979584;28;20640;-84
2020/12/15 05:15:11;;;;;;;5.63;4.27;;;11.50;99.90;;;;;;4979957;28;20705;-84
2020/12/15 05:17:39;;;;;;;5.87;4.57;;;11.50;99.90;;;;;;4996782;28;20191;-85
2020/12/15 05:20:24;;;;;;;5.90;4.03;;;11.40;99.90;;;;;;4979657;28;20254;-85
2020/12/15 05:22:49;;;;;;;6.80;4.60;;;11.40;99.90;;;;;;4979594;28;20192;-85
2020/12/15 05:25:30;;;;;;;5.87;4.27;;;11.40;99.90;;;;;;4979825;28;20188;-85
2020/12/15 05:27:59;;;;;;;8.00;4.47;;;11.40;99.90;;;;;;4979510;28;20274;-85
2020/12/15 05:30:25;;;;;;;4.60;4.03;;;11.50;99.90;;;;;;4979455;28;20186;-85
2020/12/15 05:32:54;;;;;;;7.07;4.07;;;11.60;99.90;;;;;;4980371;28;20180;-84
2020/12/15 05:35:28;;;;;;;6.67;4.13;;;11.60;99.90;;;;;;4981492;28;20261;-84
2020/12/15 05:37:58;;;;;;;6.23;3.50;;;11.60;99.90;;;;;;4984057;28;20182;-85
2020/12/15 05:40:25;;;;;;;6.47;4.07;;;11.60;99.90;;;;;;4981953;28;20182;-84
2020/12/15 05:42:57;;;;;;;8.83;3.77;;;11.60;99.90;;;;;;4979649;28;20247;-85
2020/12/15 05:45:24;;;;;;;5.03;3.70;;;11.60;99.90;;;;;;4979127;28;20218;-85
2020/12/15 05:47:58;;;;;;;5.43;4.10;;;11.50;99.90;;;;;;4978885;28;20185;-84
2020/12/15 05:50:25;;;;;;;6.13;3.80;;;11.50;99.90;;;;;;4996625;28;20209;-85
2020/12/15 05:53:19;;;;;;;6.60;3.97;;;11.50;99.90;;;;;;4978630;28;20188;-85
2020/12/15 05:55:44;;;;;;;6.13;3.70;;;11.60;99.90;;;;;;4976192;28;20280;-85
2020/12/15 05:58:15;;;;;;;6.57;3.63;;;11.60;99.90;;;;;;4978291;28;20177;-85
2020/12/15 06:00:40;;;;;;;5.43;3.47;;;11.50;99.90;;;;;;4978521;28;20171;-85
2020/12/15 06:03:06;;;;;;;5.53;3.43;;;11.50;99.90;;;;;;4977971;28;20643;-85
2020/12/15 06:05:35;;;;;;;7.87;3.10;;;11.60;99.90;;;;;;4977648;28;20185;-85
2020/12/15 06:08:02;;;;;;;5.20;3.43;;;11.50;99.90;;;;;;4975161;28;20571;-85
2020/12/15 06:10:29;;;;;;;5.27;3.27;;;11.60;99.90;;;;;;4995929;28;20181;-85
2020/12/15 06:12:57;;;;;;;3.60;3.00;;;11.60;99.90;;;;;;4978780;28;20209;-85
2020/12/15 06:15:23;;;;;;;5.73;3.00;;;11.60;99.90;;;;;;4979117;28;20188;-86
2020/12/15 06:17:55;;;;;;;5.17;2.77;;;11.50;99.90;;;;;;4996550;28;20186;-86
2020/12/15 06:20:21;;;;;;;5.50;3.20;;;11.60;99.90;;;;;;4979515;28;20579;-86
2020/12/15 06:22:54;;;;;;;4.87;3.33;;;11.60;99.90;;;;;;4978634;28;20174;-86
2020/12/15 06:25:38;;;;;;;4.47;2.97;;;11.60;99.90;;;;;;4978899;28;20174;-86
2020/12/15 06:28:12;;;;;;;4.57;3.50;;;11.50;99.90;;;;;;4978905;28;20178;-90
2020/12/15 06:30:43;;;;;;;8.33;3.70;;;11.60;99.90;;;;;;4978477;28;20201;-86
2020/12/15 06:33:13;;;;;;;3.63;3.17;;;11.60;99.90;;;;;;4978393;28;20544;-86
2020/12/15 06:35:40;;;;;;;5.13;3.37;;;11.50;99.90;;;;;;4977885;28;20215;-85
2020/12/15 06:38:16;;;;;;;5.73;3.30;;;11.50;99.90;;;;;;4976488;28;20599;-85
2020/12/15 06:40:44;;;;;;;5.50;3.70;;;11.60;99.90;;;;;;4977333;28;20174;-85
2020/12/15 06:43:12;;;;;;;4.77;3.00;;;11.50;99.90;;;;;;4977411;28;20658;-85
2020/12/15 06:45:38;;;;;;;4.30;3.03;;;11.40;99.90;;;;;;4996985;28;20198;-85
2020/12/15 06:48:05;;;;;;;6.57;3.30;;;11.40;99.90;;;;;;4979721;28;20236;-85
2020/12/15 06:50:44;;;;;;;7.33;3.20;;;11.40;99.90;;;;;;4978200;28;20693;-85
2020/12/15 06:53:13;;;;;;;4.97;3.20;;;11.50;99.90;;;;;;4978476;28;20178;-85
2020/12/15 06:55:39;;;;;;;3.77;2.70;;;11.50;99.90;;;;;;4978070;28;20217;-85
2020/12/15 06:58:04;;;;;;;4.83;2.70;;;11.50;99.90;;;;;;4977873;28;20360;-86
2020/12/15 07:00:38;;;;;;;3.53;2.60;;;11.50;99.90;;;;;;4977858;28;20312;-86
2020/12/15 07:03:06;;;;;;;3.47;2.70;;;11.40;99.90;;;;;;4977937;28;20166;-86
2020/12/15 07:05:33;;;;;;;10.47;3.80;;;11.40;99.90;;;;;;4977911;28;20170;-86
2020/12/15 07:08:04;;;;;;;3.90;2.67;;;11.40;99.90;;;;;;4978001;28;20190;-86
2020/12/15 07:10:30;;;;;;;4.60;2.60;;;11.40;99.90;;;;;;4978054;28;20174;-86
2020/12/15 07:12:59;;;;;;;5.03;2.37;;;11.50;99.90;;;;;;4977798;28;20273;-86
2020/12/15 07:15:29;;;;;;;3.47;2.23;;;11.50;99.90;;;;;;4977688;28;20206;-84
2020/12/15 07:17:55;;;;;;;3.20;2.37;;;11.40;99.90;;;;;;4977738;28;20186;-84
2020/12/15 07:20:23;;;;;;;6.67;2.80;;;11.40;99.90;;;;;;4977728;28;20181;-84
2020/12/15 07:22:50;;;;;;;6.40;3.13;;;11.30;99.90;;;;;;4977447;28;20585;-84
2020/12/15 07:25:17;;;;;;;5.63;2.60;;;11.20;99.90;;;;;;4977521;28;20201;-84
2020/12/15 07:27:44;;;;;;;6.13;3.33;;;11.40;99.90;;;;;;4977540;28;20181;-84
2020/12/15 07:30:12;;;;;;;5.23;2.83;;;11.30;99.90;;;;;;4977335;28;20182;-85
2020/12/15 07:32:39;;;;;;;3.23;2.50;;;11.40;99.90;;;;;;4977568;28;20228;-84
2020/12/15 07:35:20;;;;;;;4.23;2.97;;;11.40;99.90;;;;;;4977696;28;20208;-85
2020/12/15 07:37:48;;;;;;;3.10;2.73;;;11.40;99.90;;;;;;4977406;28;20193;-85
2020/12/15 07:40:16;;;;;;;3.93;3.30;;;11.40;99.90;;;;;;4977722;28;20205;-86
2020/12/15 07:43:02;;;;;;;4.50;3.07;;;11.40;99.90;;;;;;4977503;28;20184;-86
2020/12/15 07:45:32;;;;;;;6.10;2.73;;;11.50;99.90;;;;;;4977027;28;20206;-85
2020/12/15 07:47:58;;;;;;;6.20;2.97;;;11.50;99.90;;;;;;4977900;28;20189;-85
2020/12/15 07:50:29;;;;;;;6.67;2.90;;;11.50;99.90;;;;;;4977171;28;20190;-85
2020/12/15 07:52:56;;;;;;;5.20;3.33;;;11.60;99.90;;;;;;4976789;28;20193;-85
2020/12/15 07:55:24;;;;;;;6.80;3.10;;;11.60;99.90;;;;;;4977369;28;20186;-86
2020/12/15 07:57:50;;;;;;;4.60;2.87;;;11.70;99.90;;;;;;4977589;28;20722;-85
2020/12/15 08:00:21;;;;;;;4.60;2.70;;;11.90;99.90;;;;;;4976687;28;20186;-86
2020/12/15 08:02:47;;;;;;;5.80;2.90;;;11.80;99.90;;;;;;4977382;28;20190;-85
2020/12/15 08:05:23;;;;;;;4.07;3.17;;;11.80;99.90;;;;;;4971699;28;20600;-86
2020/12/15 08:07:58;;;;;;;4.57;3.17;;;11.80;99.90;;;;;;4977724;28;20327;-86
2020/12/15 08:10:37;;;;;;;6.00;3.37;;;11.80;99.90;;;;;;4977479;28;20319;-86
2020/12/15 08:13:07;;;;;;;5.23;3.10;;;11.90;99.90;;;;;;4971240;28;20177;-86
2020/12/15 08:15:41;;;;;;;5.80;3.37;;;11.80;99.90;;;;;;4977170;28;20266;-85
2020/12/15 08:18:10;;;;;;;5.33;3.67;;;11.80;99.90;;;;;;4980845;28;20214;-85
2020/12/15 08:20:37;;;;;;;5.67;3.40;;;11.90;99.90;;;;;;4985655;28;20642;-86
2020/12/15 08:23:13;;;;;;;6.43;3.80;;;11.90;99.90;;;;;;4992531;28;20195;-85
2020/12/15 08:25:45;;;;;;;3.77;3.07;;;11.90;99.90;;;;;;4983752;28;20177;-87
2020/12/15 08:28:13;;;;;;;5.70;3.70;;;12.00;99.90;;;;;;4978019;28;20182;-87
2020/12/15 08:30:40;;;;;;;6.80;3.43;;;11.90;99.90;;;;;;4976931;28;20197;-87
2020/12/15 08:33:09;;;;;;;8.83;4.60;;;12.10;99.90;;;;;;4976848;28;20192;-87
2020/12/15 08:35:36;;;;;;;7.93;4.63;;;12.10;99.90;;;;;;4976398;28;20182;-87
2020/12/15 08:38:05;;;;;;;7.03;4.37;;;12.00;99.90;;;;;;4977002;28;20185;-86
2020/12/15 08:40:32;;;;;;;10.33;4.50;;;12.00;99.90;;;;;;4976991;28;20202;-86
2020/12/15 08:42:59;;;;;;;6.97;4.63;;;12.00;99.90;;;;;;4976384;28;20639;-86
2020/12/15 08:45:26;;;;;;;7.97;5.17;;;12.00;99.90;;;;;;4993855;28;20217;-87
2020/12/15 08:47:57;;;;;;;7.63;4.83;;;11.90;99.90;;;;;;4976704;28;20190;-87
2020/12/15 08:50:30;;;;;;;8.10;5.00;;;11.90;99.90;;;;;;4976602;28;20177;-85
2020/12/15 08:53:08;;;;;;;11.17;5.17;;;11.80;99.90;;;;;;4993839;28;20688;-85
2020/12/15 08:55:35;;;;;;;9.13;5.63;;;11.90;99.90;;;;;;4976598;28;20181;-85
2020/12/15 08:58:02;;;;;;;7.53;5.40;;;11.90;99.90;;;;;;4976234;28;20248;-85
2020/12/15 09:00:33;;;;;;;8.70;5.67;;;11.90;99.90;;;;;;4976537;28;20190;-86
2020/12/15 09:03:14;;;;;;;9.50;5.33;;;11.90;99.90;;;;;;4976792;28;20196;-86
2020/12/15 09:05:55;;;;;;;9.80;6.10;;;11.90;99.90;;;;;;4978971;28;20177;-85
2020/12/15 09:08:24;;;;;;;9.23;5.37;;;11.90;99.90;;;;;;4980245;28;20176;-86
2020/12/15 09:10:56;;;;;;;11.50;5.90;;;12.00;99.90;;;;;;4979642;28;20187;-84
2020/12/15 09:13:25;;;;;;;12.50;5.93;;;12.10;99.90;;;;;;4979706;28;20703;-84
2020/12/15 09:15:53;;;;;;;9.13;6.20;;;12.00;99.90;;;;;;4980096;28;20212;-87
2020/12/15 09:18:43;;;;;;;11.13;6.10;;;12.10;99.90;;;;;;4979926;28;20188;-85
2020/12/15 09:21:18;;;;;;;12.27;6.67;;;12.30;99.90;;;;;;4980122;28;20235;-84
2020/12/15 09:23:50;;;;;;;11.97;6.90;;;12.20;99.90;;;;;;4979984;28;20287;-85
2020/12/15 09:26:20;;;;;;;14.50;6.80;;;12.20;99.90;;;;;;4979622;28;20753;-84
2020/12/15 09:28:47;;;;;;;11.70;7.13;;;12.10;99.90;;;;;;4979897;28;20181;-86
2020/12/15 09:31:23;;;;;;;12.07;7.67;;;12.10;99.90;;;;;;4979462;28;20194;-85
2020/12/15 09:33:49;;;;;;;12.00;7.43;;;12.20;99.90;;;;;;4979646;28;20180;-85
2020/12/15 09:36:17;;;;;;;15.93;7.97;;;12.10;99.90;;;;;;4979368;28;20218;-86
2020/12/15 09:38:46;;;;;;;13.33;8.80;;;12.10;99.90;;;;;;4979564;28;20636;-85
2020/12/15 09:41:15;;;;;;;12.50;8.33;;;12.00;99.90;;;;;;4973079;28;20187;-86
2020/12/15 09:43:40;;;;;;;12.23;9.47;;;12.00;99.90;;;;;;4959885;28;20220;-85
2020/12/15 09:46:09;;;;;;;14.10;9.13;;;12.00;99.90;;;;;;4960046;28;20200;-85
2020/12/15 09:48:35;;;;;;;13.47;9.13;;;12.00;99.90;;;;;;4960232;28;20211;-84
2020/12/15 09:51:00;;;;;;;14.53;9.10;;;12.00;99.90;;;;;;4975235;28;20181;-85
2020/12/15 09:53:27;;;;;;;15.90;9.10;;;12.10;99.90;;;;;;4959177;28;20242;-85
2020/12/15 09:55:53;;;;;;;16.37;10.50;;;11.90;99.90;;;;;;4957806;28;20280;-85
2020/12/15 09:58:19;;;;;;;15.07;10.20;;;11.90;99.90;;;;;;4958295;28;20587;-85
2020/12/15 10:00:44;;;;;;;19.27;9.63;;;12.00;99.90;;;;;;4959369;28;20189;-85
2020/12/15 10:03:13;;;;;;;17.43;9.77;;;12.00;99.90;;;;;;4959886;28;20665;-84
2020/12/15 10:05:42;;;;;;;17.90;10.23;;;12.00;99.90;;;;;;4976995;28;20212;-87
2020/12/15 10:08:07;;;;;;;15.97;9.97;;;12.00;99.90;;;;;;4958989;28;20647;-84
2020/12/15 10:10:36;;;;;;;16.33;10.00;;;12.00;99.90;;;;;;4958919;28;20172;-86
2020/12/15 10:13:05;;;;;;;19.43;10.97;;;12.00;99.90;;;;;;4960714;28;20186;-88
2020/12/15 10:15:30;;;;;;;14.07;10.00;;;11.90;99.90;;;;;;4959387;28;20183;-86
2020/12/15 10:17:59;;;;;;;16.90;10.40;;;11.90;99.90;;;;;;4959265;28;20270;-88
2020/12/15 10:20:28;;;;;;;16.93;10.27;;;11.90;99.90;;;;;;4959236;28;20213;-88
2020/12/15 10:22:57;;;;;;;15.80;9.83;;;11.90;99.90;;;;;;4959595;28;20272;-88
2020/12/15 10:25:23;;;;;;;14.57;10.10;;;11.80;99.90;;;;;;4960151;28;20228;-88
2020/12/15 10:27:50;;;;;;;18.90;10.97;;;11.80;99.90;;;;;;4960815;28;20189;-86
2020/12/15 10:30:17;;;;;;;15.97;10.20;;;11.70;99.90;;;;;;4959542;28;20217;-86
2020/12/15 10:32:45;;;;;;;16.77;11.37;;;11.80;99.90;;;;;;4970450;28;20539;-86
2020/12/15 10:35:11;;;;;;;15.77;10.50;;;11.70;99.90;;;;;;4978304;28;20178;-84
2020/12/15 10:37:37;;;;;;;14.00;9.27;;;11.70;99.90;;;;;;4978466;28;20250;-86
2020/12/15 10:40:03;;;;;;;16.03;10.97;;;11.60;99.90;;;;;;4978490;28;20216;-84
2020/12/15 10:42:30;;;;;;;19.70;11.83;;;11.50;99.90;;;;;;4995207;28;20268;-85
2020/12/15 10:44:56;;;;;;;18.17;12.07;;;11.50;99.90;;;;;;4978279;28;20669;-85
2020/12/15 10:47:22;;;;;;;18.17;11.07;;;11.60;99.90;;;;;;4978171;28;20188;-85
2020/12/15 10:49:51;;;;;;;18.57;10.33;;;11.70;99.90;;;;;;4978408;28;20607;-85
2020/12/15 10:52:17;;;;;;;19.07;11.90;;;11.70;99.90;;;;;;4970327;28;20645;-84
2020/12/15 10:54:44;;;;;;;19.77;11.70;;;11.70;99.90;;;;;;4959449;28;20190;-85
2020/12/15 10:57:09;;;;;;;16.10;11.03;;;11.80;99.90;;;;;;4960533;28;20223;-85
2020/12/15 10:59:35;;;;;;;17.33;12.30;;;11.80;99.90;;;;;;4960378;28;20263;-84
2020/12/15 11:02:00;;;;;;;17.00;12.40;;;11.80;99.90;;;;;;4962348;28;20183;-85
2020/12/15 11:04:28;;;;;;;16.10;11.03;;;11.80;99.90;;;;;;4980977;28;20242;-85
2020/12/15 11:06:53;;;;;;;20.17;11.43;;;11.70;99.90;;;;;;4982251;28;20176;-86
2020/12/15 11:09:19;;;;;;;18.03;12.00;;;11.60;99.90;;;;;;4979176;28;20609;-84
2020/12/15 11:11:49;;;;;;;16.40;11.77;;;11.60;99.90;;;;;;4977305;28;20190;-85
2020/12/15 11:14:16;;;;;;;18.97;12.20;;;11.60;99.90;;;;;;4977848;28;20178;-85
2020/12/15 11:16:45;;;;;;;17.70;12.43;;;11.60;99.90;;;;;;4977748;28;20356;-84
2020/12/15 11:19:11;;;;;;;20.37;12.33;;;11.70;99.90;;;;;;4977817;28;20197;-85
2020/12/15 11:21:40;;;;;;;18.53;11.63;;;11.80;99.90;;;;;;4977907;28;20177;-84
2020/12/15 11:24:08;;;;;;;20.33;12.40;;;11.90;99.90;;;;;;4977903;28;20176;-85
2020/12/15 11:26:33;;;;;;;18.93;12.20;;;11.80;99.90;;;;;;4977504;28;20632;-84
2020/12/15 11:28:59;;;;;;;16.67;11.43;;;11.90;99.90;;;;;;4977486;28;20185;-84
2020/12/15 11:31:26;;;;;;;16.67;11.77;;;11.90;99.90;;;;;;4977886;28;20170;-85
2020/12/15 11:33:52;;;;;;;33.73;13.80;;;12.00;99.90;;;;;;4994707;28;20162;-85
2020/12/15 11:36:19;;;;;;;17.37;11.77;;;12.00;99.90;;;;;;4977425;28;20717;-84
2020/12/15 11:38:45;;;;;;;242.77;34.03;;;12.00;99.90;;;;;;4994716;28;20185;-85
2020/12/15 11:41:13;;;;;;;26.50;13.47;;;12.00;99.90;;;;;;4976975;28;20197;-84
2020/12/15 11:43:39;;;;;;;16.63;11.00;;;12.10;99.90;;;;;;4977064;28;20182;-84
2020/12/15 11:46:05;;;;;;;15.90;11.23;;;12.00;99.90;;;;;;4977042;28;20321;-84
2020/12/15 11:48:34;;;;;;;18.63;12.13;;;11.90;99.90;;;;;;4976990;28;20235;-84
2020/12/15 11:51:03;;;;;;;15.83;11.30;;;12.00;99.90;;;;;;4977402;28;20208;-84
2020/12/15 12:34:54;;;;;;;22.30;14.23;;;12.00;99.90;;;;;;5833888;23;20240;-93
2020/12/15 12:37:26;;;;;;;21.80;15.07;;;12.10;99.90;;;;;;5031516;28;20203;-90
2020/12/15 12:39:52;;;;;;;22.83;14.47;;;12.10;99.90;;;;;;5016145;28;20198;-91
2020/12/15 12:42:18;;;;;;;20.17;15.17;;;12.10;99.90;;;;;;5018088;28;20185;-93
2020/12/15 12:44:49;;;;;;;23.87;15.23;;;12.10;99.90;;;;;;5019359;28;20237;-91
2020/12/15 12:51:28;;;;;;;23.47;15.87;;;12.30;99.90;;;;;;5033223;28;20213;-96
2020/12/15 12:53:57;;;;;;;21.27;15.23;;;12.40;99.90;;;;;;5011178;28;20270;-92
2020/12/15 12:56:26;;;;;;;22.53;15.27;;;12.50;99.90;;;;;;5000556;28;20230;-96
2020/12/15 12:58:54;;;;;;;24.67;15.27;;;12.60;99.90;;;;;;5000672;28;20536;-95
2020/12/15 13:01:26;;;;;;;20.07;15.33;;;12.40;99.90;;;;;;5001127;28;20200;-96
2020/12/15 13:04:17;;;;;;;26.73;14.37;;;12.50;99.90;;;;;;5031178;28;20174;-90
2020/12/15 13:07:09;;;;;;;20.83;13.93;;;12.60;99.90;;;;;;5014479;28;20161;-88
2020/12/15 13:09:39;;;;;;;18.37;13.20;;;12.50;99.90;;;;;;5016358;28;20167;-89
2020/12/15 13:12:04;;;;;;;19.00;12.87;;;12.50;99.90;;;;;;5012754;28;20195;-89
2020/12/15 13:14:38;;;;;;;20.43;13.97;;;12.60;99.90;;;;;;5011845;28;20157;-88
2020/12/15 13:17:55;;;;;;;21.37;14.20;;;12.80;99.90;;;;;;5011423;28;20291;-88
2020/12/15 13:20:26;;;;;;;20.00;14.47;;;12.80;99.90;;;;;;5013507;28;20185;-89
2020/12/15 13:22:56;;;;;;;20.23;14.53;;;12.90;99.90;;;;;;5030672;28;20196;-88
2020/12/15 13:25:26;;;;;;;20.53;14.07;;;13.00;99.90;;;;;;5013248;28;20183;-89
2020/12/15 13:28:00;;;;;;;19.83;12.50;;;13.10;99.90;;;;;;5007824;28;20198;-88
2020/12/15 13:30:30;;;;;;;18.90;12.33;;;13.10;99.90;;;;;;5011375;28;20187;-89
2020/12/15 13:33:05;;;;;;;16.60;12.47;;;13.10;99.90;;;;;;5014416;28;20228;-87